sensor_id;sensor_type;location;lat;lon;timestamp;temperature;humidity
45137;DHT22;30894;51.740;19.498;2023-05-07T00:01:21;5.90;85.70
45137;DHT22;30894;51.740;19.498;2023-05-07T00:03:48;5.90;85.90
45137;DHT22;30894;51.740;19.498;2023-05-07T00:06:14;5.90;86.00
45137;DHT22;30894;51.740;19.498;2023-05-07T00:08:41;5.80;86.10
45137;DHT22;30894;51.740;19.498;2023-05-07T00:11:07;5.80;86.30
45137;DHT22;30894;51.740;19.498;2023-05-07T00:13:33;5.80;86.50
45137;DHT22;30894;51.740;19.498;2023-05-07T00:16:02;5.80;86.70
45137;DHT22;30894;51.740;19.498;2023-05-07T00:18:28;5.80;86.90
45137;DHT22;30894;51.740;19.498;2023-05-07T00:20:54;5.80;87.10
45137;DHT22;30894;51.740;19.498;2023-05-07T00:23:22;5.80;87.30
45137;DHT22;30894;51.740;19.498;2023-05-07T00:25:49;5.80;87.50
45137;DHT22;30894;51.740;19.498;2023-05-07T00:28:16;5.80;87.70
45137;DHT22;30894;51.740;19.498;2023-05-07T00:30:42;5.80;87.90
45137;DHT22;30894;51.740;19.498;2023-05-07T00:33:11;5.80;88.10
45137;DHT22;30894;51.740;19.498;2023-05-07T00:35:37;5.80;88.30
45137;DHT22;30894;51.740;19.498;2023-05-07T00:38:04;5.80;88.50
45137;DHT22;30894;51.740;19.498;2023-05-07T00:40:30;5.80;88.70
45137;DHT22;30894;51.740;19.498;2023-05-07T00:42:56;5.80;88.90
45137;DHT22;30894;51.740;19.498;2023-05-07T00:45:27;5.70;89.00
45137;DHT22;30894;51.740;19.498;2023-05-07T00:47:55;5.70;89.20
45137;DHT22;30894;51.740;19.498;2023-05-07T00:50:22;5.70;89.40
45137;DHT22;30894;51.740;19.498;2023-05-07T00:52:48;5.70;89.50
45137;DHT22;30894;51.740;19.498;2023-05-07T00:55:15;5.70;89.70
45137;DHT22;30894;51.740;19.498;2023-05-07T00:57:42;5.70;90.00
45137;DHT22;30894;51.740;19.498;2023-05-07T01:00:09;5.70;90.00
45137;DHT22;30894;51.740;19.498;2023-05-07T01:02:36;5.60;90.10
45137;DHT22;30894;51.740;19.498;2023-05-07T01:05:05;5.60;90.20
45137;DHT22;30894;51.740;19.498;2023-05-07T01:07:34;5.60;90.30
45137;DHT22;30894;51.740;19.498;2023-05-07T01:10:02;5.60;90.50
45137;DHT22;30894;51.740;19.498;2023-05-07T01:12:29;5.60;90.50
45137;DHT22;30894;51.740;19.498;2023-05-07T01:14:57;5.60;90.70
45137;DHT22;30894;51.740;19.498;2023-05-07T01:17:23;5.60;90.80
45137;DHT22;30894;51.740;19.498;2023-05-07T01:19:50;5.60;90.90
45137;DHT22;30894;51.740;19.498;2023-05-07T01:25:06;5.60;91.10
45137;DHT22;30894;51.740;19.498;2023-05-07T01:27:34;5.60;91.20
45137;DHT22;30894;51.740;19.498;2023-05-07T01:30:03;5.60;91.30
45137;DHT22;30894;51.740;19.498;2023-05-07T01:32:58;5.50;91.40
45137;DHT22;30894;51.740;19.498;2023-05-07T01:35:32;5.50;91.50
45137;DHT22;30894;51.740;19.498;2023-05-07T01:38:01;5.50;91.70
45137;DHT22;30894;51.740;19.498;2023-05-07T01:40:30;5.50;91.80
45137;DHT22;30894;51.740;19.498;2023-05-07T01:42:56;5.50;91.90
45137;DHT22;30894;51.740;19.498;2023-05-07T01:45:23;5.50;92.10
45137;DHT22;30894;51.740;19.498;2023-05-07T01:47:51;5.50;92.20
45137;DHT22;30894;51.740;19.498;2023-05-07T01:50:19;5.50;92.30
45137;DHT22;30894;51.740;19.498;2023-05-07T01:52:47;5.60;92.40
45137;DHT22;30894;51.740;19.498;2023-05-07T01:55:16;5.60;92.50
45137;DHT22;30894;51.740;19.498;2023-05-07T01:57:42;5.50;92.50
45137;DHT22;30894;51.740;19.498;2023-05-07T02:00:09;5.60;92.60
45137;DHT22;30894;51.740;19.498;2023-05-07T02:02:36;5.60;92.70
45137;DHT22;30894;51.740;19.498;2023-05-07T02:05:04;5.60;92.80
45137;DHT22;30894;51.740;19.498;2023-05-07T02:07:33;5.60;93.00
45137;DHT22;30894;51.740;19.498;2023-05-07T02:09:59;5.60;93.10
45137;DHT22;30894;51.740;19.498;2023-05-07T02:12:25;5.60;93.20
45137;DHT22;30894;51.740;19.498;2023-05-07T02:14:51;5.60;93.30
45137;DHT22;30894;51.740;19.498;2023-05-07T02:17:18;5.50;93.40
45137;DHT22;30894;51.740;19.498;2023-05-07T02:19:44;5.50;93.50
45137;DHT22;30894;51.740;19.498;2023-05-07T02:22:13;5.50;93.60
45137;DHT22;30894;51.740;19.498;2023-05-07T02:24:39;5.50;93.70
45137;DHT22;30894;51.740;19.498;2023-05-07T02:27:05;5.50;93.80
45137;DHT22;30894;51.740;19.498;2023-05-07T02:29:31;5.50;94.00
45137;DHT22;30894;51.740;19.498;2023-05-07T02:31:57;5.50;94.10
45137;DHT22;30894;51.740;19.498;2023-05-07T02:34:23;5.50;94.20
45137;DHT22;30894;51.740;19.498;2023-05-07T02:36:50;5.50;94.30
45137;DHT22;30894;51.740;19.498;2023-05-07T02:39:16;5.50;94.40
45137;DHT22;30894;51.740;19.498;2023-05-07T02:41:43;5.50;94.60
45137;DHT22;30894;51.740;19.498;2023-05-07T02:44:09;5.50;94.70
45137;DHT22;30894;51.740;19.498;2023-05-07T02:46:35;5.50;94.80
45137;DHT22;30894;51.740;19.498;2023-05-07T02:49:01;5.40;94.80
45137;DHT22;30894;51.740;19.498;2023-05-07T02:51:30;5.40;95.00
45137;DHT22;30894;51.740;19.498;2023-05-07T02:53:59;5.50;95.10
45137;DHT22;30894;51.740;19.498;2023-05-07T02:56:26;5.50;95.20
45137;DHT22;30894;51.740;19.498;2023-05-07T02:58:53;5.40;95.20
45137;DHT22;30894;51.740;19.498;2023-05-07T03:01:20;5.40;95.30
45137;DHT22;30894;51.740;19.498;2023-05-07T03:03:46;5.40;95.40
45137;DHT22;30894;51.740;19.498;2023-05-07T03:06:15;5.40;95.50
45137;DHT22;30894;51.740;19.498;2023-05-07T03:08:41;5.30;95.50
45137;DHT22;30894;51.740;19.498;2023-05-07T03:11:07;5.40;95.70
45137;DHT22;30894;51.740;19.498;2023-05-07T03:13:33;5.30;95.80
45137;DHT22;30894;51.740;19.498;2023-05-07T03:15:59;5.30;95.90
45137;DHT22;30894;51.740;19.498;2023-05-07T03:18:25;5.30;96.00
45137;DHT22;30894;51.740;19.498;2023-05-07T03:20:51;5.30;96.10
45137;DHT22;30894;51.740;19.498;2023-05-07T03:23:20;5.30;96.30
45137;DHT22;30894;51.740;19.498;2023-05-07T03:25:46;5.30;96.40
45137;DHT22;30894;51.740;19.498;2023-05-07T03:28:15;5.30;96.50
45137;DHT22;30894;51.740;19.498;2023-05-07T03:30:41;5.30;96.60
45137;DHT22;30894;51.740;19.498;2023-05-07T03:33:09;5.30;96.70
45137;DHT22;30894;51.740;19.498;2023-05-07T03:35:36;5.20;96.80
45137;DHT22;30894;51.740;19.498;2023-05-07T03:38:02;5.30;96.90
45137;DHT22;30894;51.740;19.498;2023-05-07T03:40:28;5.30;97.00
45137;DHT22;30894;51.740;19.498;2023-05-07T03:42:54;5.30;97.10
45137;DHT22;30894;51.740;19.498;2023-05-07T03:45:20;5.30;97.20
45137;DHT22;30894;51.740;19.498;2023-05-07T03:47:46;5.30;97.20
45137;DHT22;30894;51.740;19.498;2023-05-07T03:50:12;5.30;97.30
45137;DHT22;30894;51.740;19.498;2023-05-07T03:52:38;5.30;97.30
45137;DHT22;30894;51.740;19.498;2023-05-07T03:55:05;5.30;97.40
45137;DHT22;30894;51.740;19.498;2023-05-07T03:57:34;5.30;97.50
45137;DHT22;30894;51.740;19.498;2023-05-07T04:00:02;5.20;97.50
45137;DHT22;30894;51.740;19.498;2023-05-07T04:02:30;5.30;97.60
45137;DHT22;30894;51.740;19.498;2023-05-07T04:04:56;5.30;97.80
45137;DHT22;30894;51.740;19.498;2023-05-07T04:07:22;5.30;97.80
45137;DHT22;30894;51.740;19.498;2023-05-07T04:09:48;5.30;97.90
45137;DHT22;30894;51.740;19.498;2023-05-07T04:12:15;5.30;98.00
45137;DHT22;30894;51.740;19.498;2023-05-07T04:14:41;5.30;98.10
45137;DHT22;30894;51.740;19.498;2023-05-07T04:17:07;5.30;98.20
45137;DHT22;30894;51.740;19.498;2023-05-07T04:19:35;5.30;98.20
45137;DHT22;30894;51.740;19.498;2023-05-07T04:22:01;5.30;98.30
45137;DHT22;30894;51.740;19.498;2023-05-07T04:24:31;5.30;98.40
45137;DHT22;30894;51.740;19.498;2023-05-07T04:26:58;5.30;98.50
45137;DHT22;30894;51.740;19.498;2023-05-07T04:29:25;5.30;98.60
45137;DHT22;30894;51.740;19.498;2023-05-07T04:31:51;5.30;98.60
45137;DHT22;30894;51.740;19.498;2023-05-07T04:34:18;5.30;98.70
45137;DHT22;30894;51.740;19.498;2023-05-07T04:36:43;5.30;98.70
45137;DHT22;30894;51.740;19.498;2023-05-07T04:39:10;5.30;98.80
45137;DHT22;30894;51.740;19.498;2023-05-07T04:41:36;5.40;98.90
45137;DHT22;30894;51.740;19.498;2023-05-07T04:44:02;5.30;98.90
45137;DHT22;30894;51.740;19.498;2023-05-07T04:46:29;5.40;99.10
45137;DHT22;30894;51.740;19.498;2023-05-07T04:48:56;5.30;99.10
45137;DHT22;30894;51.740;19.498;2023-05-07T04:51:22;5.30;99.20
45137;DHT22;30894;51.740;19.498;2023-05-07T04:53:49;5.30;99.40
45137;DHT22;30894;51.740;19.498;2023-05-07T04:56:14;5.30;99.70
45137;DHT22;30894;51.740;19.498;2023-05-07T04:58:44;5.40;99.60
45137;DHT22;30894;51.740;19.498;2023-05-07T05:01:10;5.40;99.70
45137;DHT22;30894;51.740;19.498;2023-05-07T05:03:36;5.40;99.80
45137;DHT22;30894;51.740;19.498;2023-05-07T05:06:02;5.40;99.90
45137;DHT22;30894;51.740;19.498;2023-05-07T05:08:29;5.50;99.90
45137;DHT22;30894;51.740;19.498;2023-05-07T05:10:56;5.50;99.90
45137;DHT22;30894;51.740;19.498;2023-05-07T05:13:23;5.50;99.90
45137;DHT22;30894;51.740;19.498;2023-05-07T05:15:52;5.60;99.90
45137;DHT22;30894;51.740;19.498;2023-05-07T05:18:18;5.60;99.90
45137;DHT22;30894;51.740;19.498;2023-05-07T05:20:45;5.60;99.90
45137;DHT22;30894;51.740;19.498;2023-05-07T05:23:11;5.60;99.90
45137;DHT22;30894;51.740;19.498;2023-05-07T05:25:37;5.70;99.90
45137;DHT22;30894;51.740;19.498;2023-05-07T05:28:05;5.70;99.90
45137;DHT22;30894;51.740;19.498;2023-05-07T05:30:31;5.70;99.90
45137;DHT22;30894;51.740;19.498;2023-05-07T05:32:57;5.70;99.90
45137;DHT22;30894;51.740;19.498;2023-05-07T05:35:23;5.80;99.90
45137;DHT22;30894;51.740;19.498;2023-05-07T05:37:49;5.80;99.90
45137;DHT22;30894;51.740;19.498;2023-05-07T05:40:16;5.80;99.90
45137;DHT22;30894;51.740;19.498;2023-05-07T05:42:42;5.90;99.90
45137;DHT22;30894;51.740;19.498;2023-05-07T05:45:08;5.90;99.90
45137;DHT22;30894;51.740;19.498;2023-05-07T05:47:35;5.90;99.90
45137;DHT22;30894;51.740;19.498;2023-05-07T05:50:01;5.90;99.90
45137;DHT22;30894;51.740;19.498;2023-05-07T05:52:30;5.90;99.90
45137;DHT22;30894;51.740;19.498;2023-05-07T05:54:56;5.90;99.90
45137;DHT22;30894;51.740;19.498;2023-05-07T05:57:22;6.00;99.90
45137;DHT22;30894;51.740;19.498;2023-05-07T05:59:48;6.00;99.90
45137;DHT22;30894;51.740;19.498;2023-05-07T06:02:15;6.10;99.90
45137;DHT22;30894;51.740;19.498;2023-05-07T06:04:41;6.10;99.90
45137;DHT22;30894;51.740;19.498;2023-05-07T06:07:08;6.20;99.90
45137;DHT22;30894;51.740;19.498;2023-05-07T06:09:34;6.20;99.90
45137;DHT22;30894;51.740;19.498;2023-05-07T06:12:01;6.20;99.90
45137;DHT22;30894;51.740;19.498;2023-05-07T06:14:26;6.20;99.90
45137;DHT22;30894;51.740;19.498;2023-05-07T06:16:53;6.30;99.90
45137;DHT22;30894;51.740;19.498;2023-05-07T06:19:19;6.30;99.90
45137;DHT22;30894;51.740;19.498;2023-05-07T06:21:49;6.30;99.90
45137;DHT22;30894;51.740;19.498;2023-05-07T06:24:15;6.40;99.90
45137;DHT22;30894;51.740;19.498;2023-05-07T06:26:42;6.50;99.90
45137;DHT22;30894;51.740;19.498;2023-05-07T06:29:08;6.50;99.90
45137;DHT22;30894;51.740;19.498;2023-05-07T06:31:34;6.60;99.90
45137;DHT22;30894;51.740;19.498;2023-05-07T06:34:00;6.60;99.90
45137;DHT22;30894;51.740;19.498;2023-05-07T06:36:28;6.70;99.90
45137;DHT22;30894;51.740;19.498;2023-05-07T06:38:54;6.80;99.90
45137;DHT22;30894;51.740;19.498;2023-05-07T06:41:20;6.90;99.90
45137;DHT22;30894;51.740;19.498;2023-05-07T06:43:47;6.90;99.90
45137;DHT22;30894;51.740;19.498;2023-05-07T06:46:13;7.00;99.90
45137;DHT22;30894;51.740;19.498;2023-05-07T06:48:40;6.90;99.90
45137;DHT22;30894;51.740;19.498;2023-05-07T06:51:06;6.90;99.90
45137;DHT22;30894;51.740;19.498;2023-05-07T06:53:32;6.90;99.90
45137;DHT22;30894;51.740;19.498;2023-05-07T06:55:58;6.90;99.90
45137;DHT22;30894;51.740;19.498;2023-05-07T06:58:24;7.00;99.90
45137;DHT22;30894;51.740;19.498;2023-05-07T07:00:50;7.00;99.90
45137;DHT22;30894;51.740;19.498;2023-05-07T07:03:16;7.00;99.90
45137;DHT22;30894;51.740;19.498;2023-05-07T07:05:43;7.10;99.90
45137;DHT22;30894;51.740;19.498;2023-05-07T07:08:10;7.10;99.90
45137;DHT22;30894;51.740;19.498;2023-05-07T07:10:36;7.20;99.90
45137;DHT22;30894;51.740;19.498;2023-05-07T07:13:02;7.30;99.90
45137;DHT22;30894;51.740;19.498;2023-05-07T07:15:28;7.40;99.90
45137;DHT22;30894;51.740;19.498;2023-05-07T07:17:54;7.50;99.90
45137;DHT22;30894;51.740;19.498;2023-05-07T07:20:20;7.60;99.80
45137;DHT22;30894;51.740;19.498;2023-05-07T07:22:46;7.60;99.60
45137;DHT22;30894;51.740;19.498;2023-05-07T07:25:12;7.80;99.50
45137;DHT22;30894;51.740;19.498;2023-05-07T07:27:39;7.80;99.20
45137;DHT22;30894;51.740;19.498;2023-05-07T07:30:07;7.80;99.10
45137;DHT22;30894;51.740;19.498;2023-05-07T07:32:34;7.90;99.10
45137;DHT22;30894;51.740;19.498;2023-05-07T07:35:01;7.90;98.80
45137;DHT22;30894;51.740;19.498;2023-05-07T07:37:27;7.90;98.70
45137;DHT22;30894;51.740;19.498;2023-05-07T07:39:54;7.90;98.70
45137;DHT22;30894;51.740;19.498;2023-05-07T07:42:20;7.90;98.80
45137;DHT22;30894;51.740;19.498;2023-05-07T07:44:46;7.90;98.70
45137;DHT22;30894;51.740;19.498;2023-05-07T07:47:14;7.90;98.60
45137;DHT22;30894;51.740;19.498;2023-05-07T07:49:40;7.90;98.50
45137;DHT22;30894;51.740;19.498;2023-05-07T07:52:06;7.80;98.60
45137;DHT22;30894;51.740;19.498;2023-05-07T07:54:32;7.90;98.60
45137;DHT22;30894;51.740;19.498;2023-05-07T07:56:58;7.80;98.60
45137;DHT22;30894;51.740;19.498;2023-05-07T07:59:25;7.80;98.60
45137;DHT22;30894;51.740;19.498;2023-05-07T08:01:51;7.90;98.70
45137;DHT22;30894;51.740;19.498;2023-05-07T08:04:23;7.80;98.60
45137;DHT22;30894;51.740;19.498;2023-05-07T08:06:49;7.80;98.90
45137;DHT22;30894;51.740;19.498;2023-05-07T08:09:16;7.90;98.60
45137;DHT22;30894;51.740;19.498;2023-05-07T08:11:42;8.00;98.40
45137;DHT22;30894;51.740;19.498;2023-05-07T08:14:08;8.10;98.30
45137;DHT22;30894;51.740;19.498;2023-05-07T08:16:34;8.10;98.20
45137;DHT22;30894;51.740;19.498;2023-05-07T08:19:00;8.10;98.30
45137;DHT22;30894;51.740;19.498;2023-05-07T08:21:26;8.10;98.30
45137;DHT22;30894;51.740;19.498;2023-05-07T08:23:53;8.10;98.30
45137;DHT22;30894;51.740;19.498;2023-05-07T08:26:19;8.10;98.30
45137;DHT22;30894;51.740;19.498;2023-05-07T08:28:46;8.20;98.30
45137;DHT22;30894;51.740;19.498;2023-05-07T08:31:12;8.30;98.10
45137;DHT22;30894;51.740;19.498;2023-05-07T08:33:38;8.30;97.90
45137;DHT22;30894;51.740;19.498;2023-05-07T08:36:04;8.40;97.80
45137;DHT22;30894;51.740;19.498;2023-05-07T08:38:34;8.50;97.60
45137;DHT22;30894;51.740;19.498;2023-05-07T08:41:00;8.60;97.50
45137;DHT22;30894;51.740;19.498;2023-05-07T08:43:27;8.90;97.50
45137;DHT22;30894;51.740;19.498;2023-05-07T08:45:57;9.70;95.80
45137;DHT22;30894;51.740;19.498;2023-05-07T08:48:25;10.60;94.10
45137;DHT22;30894;51.740;19.498;2023-05-07T08:50:57;11.20;92.50
45137;DHT22;30894;51.740;19.498;2023-05-07T08:53:24;11.70;91.40
45137;DHT22;30894;51.740;19.498;2023-05-07T08:55:51;12.10;90.40
45137;DHT22;30894;51.740;19.498;2023-05-07T08:58:19;12.20;89.90
45137;DHT22;30894;51.740;19.498;2023-05-07T09:00:46;12.00;90.00
45137;DHT22;30894;51.740;19.498;2023-05-07T09:03:13;11.80;90.30
45137;DHT22;30894;51.740;19.498;2023-05-07T09:05:39;11.60;90.70
45137;DHT22;30894;51.740;19.498;2023-05-07T09:08:07;11.40;91.00
45137;DHT22;30894;51.740;19.498;2023-05-07T09:10:34;11.20;91.40
45137;DHT22;30894;51.740;19.498;2023-05-07T09:13:00;11.30;91.60
45137;DHT22;30894;51.740;19.498;2023-05-07T09:15:28;11.40;91.50
45137;DHT22;30894;51.740;19.498;2023-05-07T09:17:54;11.60;91.20
45137;DHT22;30894;51.740;19.498;2023-05-07T09:20:26;11.70;91.00
45137;DHT22;30894;51.740;19.498;2023-05-07T09:22:55;11.50;90.90
45137;DHT22;30894;51.740;19.498;2023-05-07T09:25:32;11.40;91.10
45137;DHT22;30894;51.740;19.498;2023-05-07T09:28:00;11.30;91.40
45137;DHT22;30894;51.740;19.498;2023-05-07T09:30:28;11.10;91.70
45137;DHT22;30894;51.740;19.498;2023-05-07T09:32:57;11.20;91.90
45137;DHT22;30894;51.740;19.498;2023-05-07T09:35:25;11.60;91.70
45137;DHT22;30894;51.740;19.498;2023-05-07T09:38:00;12.90;90.50
45137;DHT22;30894;51.740;19.498;2023-05-07T09:40:28;14.50;86.00
45137;DHT22;30894;51.740;19.498;2023-05-07T09:42:56;15.30;82.00
45137;DHT22;30894;51.740;19.498;2023-05-07T09:45:30;15.20;81.40
45137;DHT22;30894;51.740;19.498;2023-05-07T09:47:57;14.70;82.10
45137;DHT22;30894;51.740;19.498;2023-05-07T09:50:30;14.20;83.40
45137;DHT22;30894;51.740;19.498;2023-05-07T09:53:06;13.80;84.90
45137;DHT22;30894;51.740;19.498;2023-05-07T09:55:32;13.40;86.50
45137;DHT22;30894;51.740;19.498;2023-05-07T09:57:59;13.00;87.60
45137;DHT22;30894;51.740;19.498;2023-05-07T10:00:29;12.70;88.80
45137;DHT22;30894;51.740;19.498;2023-05-07T10:02:57;12.40;89.70
45137;DHT22;30894;51.740;19.498;2023-05-07T10:05:24;12.20;90.40
45137;DHT22;30894;51.740;19.498;2023-05-07T10:07:51;12.10;90.70
45137;DHT22;30894;51.740;19.498;2023-05-07T10:10:18;12.10;91.00
45137;DHT22;30894;51.740;19.498;2023-05-07T10:12:45;12.40;91.00
45137;DHT22;30894;51.740;19.498;2023-05-07T10:15:12;13.40;90.30
45137;DHT22;30894;51.740;19.498;2023-05-07T10:17:40;14.50;86.70
45137;DHT22;30894;51.740;19.498;2023-05-07T10:20:07;14.70;84.80
45137;DHT22;30894;51.740;19.498;2023-05-07T10:22:41;14.50;84.50
45137;DHT22;30894;51.740;19.498;2023-05-07T10:25:23;14.10;85.00
45137;DHT22;30894;51.740;19.498;2023-05-07T10:28:04;13.80;86.00
45137;DHT22;30894;51.740;19.498;2023-05-07T10:33:29;13.30;87.80
45137;DHT22;30894;51.740;19.498;2023-05-07T10:35:58;13.30;88.70
45137;DHT22;30894;51.740;19.498;2023-05-07T10:38:27;13.40;88.70
45137;DHT22;30894;51.740;19.498;2023-05-07T10:40:53;13.70;88.10
45137;DHT22;30894;51.740;19.498;2023-05-07T10:43:20;13.80;87.60
45137;DHT22;30894;51.740;19.498;2023-05-07T10:51:32;12.90;89.30
45137;DHT22;30894;51.740;19.498;2023-05-07T10:56:42;13.40;89.20
45137;DHT22;30894;51.740;19.498;2023-05-07T11:01:59;13.50;88.20
45137;DHT22;30894;51.740;19.498;2023-05-07T11:04:32;13.50;88.40
45137;DHT22;30894;51.740;19.498;2023-05-07T11:15:09;12.70;90.00
45137;DHT22;30894;51.740;19.498;2023-05-07T11:17:55;12.40;90.50
45137;DHT22;30894;51.740;19.498;2023-05-07T11:20:52;12.40;90.80
45137;DHT22;30894;51.740;19.498;2023-05-07T11:26:09;12.30;91.10
45137;DHT22;30894;51.740;19.498;2023-05-07T11:28:45;12.30;91.00
45137;DHT22;30894;51.740;19.498;2023-05-07T11:31:12;12.30;91.00
45137;DHT22;30894;51.740;19.498;2023-05-07T11:33:38;12.10;91.10
45137;DHT22;30894;51.740;19.498;2023-05-07T11:36:05;12.00;91.30
45137;DHT22;30894;51.740;19.498;2023-05-07T11:38:35;11.80;91.80
45137;DHT22;30894;51.740;19.498;2023-05-07T11:41:03;11.70;91.80
45137;DHT22;30894;51.740;19.498;2023-05-07T11:43:33;11.80;91.90
45137;DHT22;30894;51.740;19.498;2023-05-07T11:46:11;12.30;91.50
45137;DHT22;30894;51.740;19.498;2023-05-07T11:48:40;12.40;90.90
45137;DHT22;30894;51.740;19.498;2023-05-07T11:51:07;12.50;90.80
45137;DHT22;30894;51.740;19.498;2023-05-07T11:53:40;12.40;90.80
45137;DHT22;30894;51.740;19.498;2023-05-07T11:56:12;12.30;90.80
45137;DHT22;30894;51.740;19.498;2023-05-07T11:58:40;12.20;90.90
45137;DHT22;30894;51.740;19.498;2023-05-07T12:01:09;12.20;91.10
45137;DHT22;30894;51.740;19.498;2023-05-07T12:03:36;12.20;91.10
45137;DHT22;30894;51.740;19.498;2023-05-07T12:06:06;12.10;91.10
45137;DHT22;30894;51.740;19.498;2023-05-07T12:08:32;12.10;91.20
45137;DHT22;30894;51.740;19.498;2023-05-07T12:11:25;12.10;91.30
45137;DHT22;30894;51.740;19.498;2023-05-07T12:13:51;12.30;91.20
45137;DHT22;30894;51.740;19.498;2023-05-07T12:16:20;12.50;90.90
45137;DHT22;30894;51.740;19.498;2023-05-07T12:18:47;13.00;90.40
45137;DHT22;30894;51.740;19.498;2023-05-07T12:21:14;13.10;90.00
45137;DHT22;30894;51.740;19.498;2023-05-07T12:23:42;13.10;89.30
45137;DHT22;30894;51.740;19.498;2023-05-07T12:26:10;13.20;89.00
45137;DHT22;30894;51.740;19.498;2023-05-07T12:28:38;13.30;88.40
45137;DHT22;30894;51.740;19.498;2023-05-07T12:31:05;13.60;87.50
45137;DHT22;30894;51.740;19.498;2023-05-07T12:33:31;13.90;86.50
45137;DHT22;30894;51.740;19.498;2023-05-07T12:35:58;14.10;85.20
45137;DHT22;30894;51.740;19.498;2023-05-07T12:38:26;14.10;84.80
45137;DHT22;30894;51.740;19.498;2023-05-07T12:40:55;14.00;84.40
45137;DHT22;30894;51.740;19.498;2023-05-07T12:43:24;13.80;84.60
45137;DHT22;30894;51.740;19.498;2023-05-07T12:45:54;13.60;85.20
45137;DHT22;30894;51.740;19.498;2023-05-07T12:48:23;13.60;85.40
45137;DHT22;30894;51.740;19.498;2023-05-07T12:50:50;13.60;85.50
45137;DHT22;30894;51.740;19.498;2023-05-07T12:53:19;13.50;85.60
45137;DHT22;30894;51.740;19.498;2023-05-07T12:55:49;13.40;85.70
45137;DHT22;30894;51.740;19.498;2023-05-07T13:00:53;13.10;85.90
45137;DHT22;30894;51.740;19.498;2023-05-07T13:03:30;13.10;86.20
45137;DHT22;30894;51.740;19.498;2023-05-07T13:05:59;12.90;86.40
45137;DHT22;30894;51.740;19.498;2023-05-07T13:08:36;12.80;86.90
45137;DHT22;30894;51.740;19.498;2023-05-07T13:11:04;12.80;86.80
45137;DHT22;30894;51.740;19.498;2023-05-07T13:13:31;13.00;86.50
45137;DHT22;30894;51.740;19.498;2023-05-07T13:15:57;13.10;85.90
45137;DHT22;30894;51.740;19.498;2023-05-07T13:18:28;13.10;85.60
45137;DHT22;30894;51.740;19.498;2023-05-07T13:20:55;13.10;85.30
45137;DHT22;30894;51.740;19.498;2023-05-07T13:23:21;13.00;85.30
45137;DHT22;30894;51.740;19.498;2023-05-07T13:25:49;12.70;85.60
45137;DHT22;30894;51.740;19.498;2023-05-07T13:28:16;12.50;86.20
45137;DHT22;30894;51.740;19.498;2023-05-07T13:30:43;12.30;86.80
45137;DHT22;30894;51.740;19.498;2023-05-07T13:33:09;12.10;87.20
45137;DHT22;30894;51.740;19.498;2023-05-07T13:35:36;12.10;87.70
45137;DHT22;30894;51.740;19.498;2023-05-07T13:38:02;12.20;87.80
45137;DHT22;30894;51.740;19.498;2023-05-07T13:40:28;12.50;87.10
45137;DHT22;30894;51.740;19.498;2023-05-07T13:42:57;13.10;85.90
45137;DHT22;30894;51.740;19.498;2023-05-07T13:45:25;13.50;84.30
45137;DHT22;30894;51.740;19.498;2023-05-07T13:47:52;13.90;83.00
45137;DHT22;30894;51.740;19.498;2023-05-07T13:50:18;14.10;81.90
45137;DHT22;30894;51.740;19.498;2023-05-07T13:52:44;14.40;80.90
45137;DHT22;30894;51.740;19.498;2023-05-07T13:55:20;15.00;79.60
45137;DHT22;30894;51.740;19.498;2023-05-07T13:57:53;15.60;77.80
45137;DHT22;30894;51.740;19.498;2023-05-07T14:00:21;16.00;76.70
45137;DHT22;30894;51.740;19.498;2023-05-07T14:02:48;16.10;75.70
45137;DHT22;30894;51.740;19.498;2023-05-07T14:05:14;16.10;75.20
45137;DHT22;30894;51.740;19.498;2023-05-07T14:07:40;16.10;75.30
45137;DHT22;30894;51.740;19.498;2023-05-07T14:10:07;16.60;74.70
45137;DHT22;30894;51.740;19.498;2023-05-07T14:12:33;16.90;73.80
45137;DHT22;30894;51.740;19.498;2023-05-07T14:14:59;17.00;72.70
45137;DHT22;30894;51.740;19.498;2023-05-07T14:17:25;16.90;72.90
45137;DHT22;30894;51.740;19.498;2023-05-07T14:19:53;16.80;73.00
45137;DHT22;30894;51.740;19.498;2023-05-07T14:22:20;16.60;73.50
45137;DHT22;30894;51.740;19.498;2023-05-07T14:24:49;16.40;73.80
45137;DHT22;30894;51.740;19.498;2023-05-07T14:27:16;15.90;74.20
45137;DHT22;30894;51.740;19.498;2023-05-07T14:29:42;15.50;75.20
45137;DHT22;30894;51.740;19.498;2023-05-07T14:32:08;15.10;76.20
45137;DHT22;30894;51.740;19.498;2023-05-07T14:34:37;14.70;77.10
45137;DHT22;30894;51.740;19.498;2023-05-07T14:37:03;14.30;78.00
45137;DHT22;30894;51.740;19.498;2023-05-07T14:39:29;14.00;79.40
45137;DHT22;30894;51.740;19.498;2023-05-07T14:41:57;13.70;79.30
45137;DHT22;30894;51.740;19.498;2023-05-07T14:44:23;13.30;79.90
45137;DHT22;30894;51.740;19.498;2023-05-07T14:46:49;13.10;80.70
45137;DHT22;30894;51.740;19.498;2023-05-07T14:49:15;12.80;81.10
45137;DHT22;30894;51.740;19.498;2023-05-07T14:51:45;12.70;81.60
45137;DHT22;30894;51.740;19.498;2023-05-07T14:54:15;12.50;81.80
45137;DHT22;30894;51.740;19.498;2023-05-07T14:56:42;12.30;82.10
45137;DHT22;30894;51.740;19.498;2023-05-07T14:59:08;12.20;82.40
45137;DHT22;30894;51.740;19.498;2023-05-07T15:01:35;12.20;82.70
45137;DHT22;30894;51.740;19.498;2023-05-07T15:04:05;12.10;82.80
45137;DHT22;30894;51.740;19.498;2023-05-07T15:06:32;12.00;82.90
45137;DHT22;30894;51.740;19.498;2023-05-07T15:08:59;12.10;83.20
45137;DHT22;30894;51.740;19.498;2023-05-07T15:11:25;12.20;83.00
45137;DHT22;30894;51.740;19.498;2023-05-07T15:13:51;12.40;82.60
45137;DHT22;30894;51.740;19.498;2023-05-07T15:16:17;12.60;82.10
45137;DHT22;30894;51.740;19.498;2023-05-07T15:18:44;12.70;81.80
45137;DHT22;30894;51.740;19.498;2023-05-07T15:21:10;12.60;81.60
45137;DHT22;30894;51.740;19.498;2023-05-07T15:23:36;12.60;81.70
45137;DHT22;30894;51.740;19.498;2023-05-07T15:26:03;12.60;82.40
45137;DHT22;30894;51.740;19.498;2023-05-07T15:28:30;12.70;81.60
45137;DHT22;30894;51.740;19.498;2023-05-07T15:30:57;12.70;81.40
45137;DHT22;30894;51.740;19.498;2023-05-07T15:33:23;12.70;81.30
45137;DHT22;30894;51.740;19.498;2023-05-07T15:35:50;12.50;81.40
45137;DHT22;30894;51.740;19.498;2023-05-07T15:38:16;12.30;81.70
45137;DHT22;30894;51.740;19.498;2023-05-07T15:40:42;12.10;82.20
45137;DHT22;30894;51.740;19.498;2023-05-07T15:43:09;11.80;82.60
45137;DHT22;30894;51.740;19.498;2023-05-07T15:45:43;11.60;83.20
45137;DHT22;30894;51.740;19.498;2023-05-07T15:48:10;11.40;83.70
45137;DHT22;30894;51.740;19.498;2023-05-07T15:50:36;11.20;84.10
45137;DHT22;30894;51.740;19.498;2023-05-07T15:53:03;11.00;84.60
45137;DHT22;30894;51.740;19.498;2023-05-07T15:55:33;10.90;84.90
45137;DHT22;30894;51.740;19.498;2023-05-07T15:57:59;10.80;85.10